createdAt,value
2023-02-24T00:02:37.874Z,17.00
2023-02-24T00:05:27.623Z,17.00
2023-02-24T00:08:15.938Z,17.00
2023-02-24T00:11:09.862Z,17.00
2023-02-24T00:13:58.201Z,16.90
2023-02-24T00:16:48.097Z,17.00
2023-02-24T00:19:37.276Z,16.90
2023-02-24T00:22:26.794Z,17.00
2023-02-24T00:25:15.692Z,17.00
2023-02-24T00:28:03.851Z,17.00
2023-02-24T00:30:52.341Z,16.90
2023-02-24T00:33:40.715Z,16.90
2023-02-24T00:36:30.549Z,16.90
2023-02-24T00:39:30.747Z,16.90
2023-02-24T00:42:19.371Z,16.90
2023-02-24T00:45:10.406Z,16.90
2023-02-24T00:47:58.817Z,16.90
2023-02-24T00:50:47.169Z,16.80
2023-02-24T00:53:35.583Z,16.90
2023-02-24T00:56:26.863Z,16.90
2023-02-24T00:59:18.665Z,16.80
2023-02-24T01:02:07.995Z,16.80
2023-02-24T01:04:56.491Z,16.80
2023-02-24T01:07:44.888Z,16.80
2023-02-24T01:10:34.575Z,16.80
2023-02-24T01:13:23.214Z,16.80
2023-02-24T01:16:13.243Z,16.80
2023-02-24T01:19:01.510Z,16.80
2023-02-24T01:21:55.224Z,16.80
2023-02-24T01:24:45.101Z,16.80
2023-02-24T01:27:33.325Z,16.80
2023-02-24T01:30:23.164Z,16.80
2023-02-24T01:33:14.716Z,16.80
2023-02-24T01:36:11.513Z,16.80
2023-02-24T01:39:00.549Z,16.80
2023-02-24T01:41:51.098Z,16.70
2023-02-24T01:45:07.153Z,16.80
2023-02-24T01:48:01.414Z,16.70
2023-02-24T01:50:51.378Z,16.70
2023-02-24T01:53:39.713Z,16.60
2023-02-24T01:56:29.639Z,16.70
2023-02-24T01:59:18.955Z,16.60
2023-02-24T02:02:09.764Z,16.60
2023-02-24T02:05:04.610Z,16.60
2023-02-24T02:07:53.682Z,16.60
2023-02-24T02:10:45.475Z,16.60
2023-02-24T02:13:35.962Z,16.60
2023-02-24T02:16:47.352Z,16.60
2023-02-24T02:20:16.068Z,16.50
2023-02-24T02:23:55.180Z,16.50
2023-02-24T02:27:07.618Z,16.50
2023-02-24T02:30:22.032Z,16.50
2023-02-24T02:33:33.834Z,16.50
2023-02-24T02:36:29.580Z,16.50
2023-02-24T02:39:23.999Z,16.40
2023-02-24T02:42:24.336Z,16.40
2023-02-24T02:45:17.908Z,16.40
2023-02-24T02:48:11.501Z,16.30
2023-02-24T02:51:04.936Z,16.30
2023-02-24T02:54:00.331Z,16.30
2023-02-24T02:56:55.106Z,16.30
2023-02-24T02:59:49.374Z,16.30
2023-02-24T03:02:41.415Z,16.30
2023-02-24T03:05:37.256Z,16.30
2023-02-24T03:08:30.677Z,16.30
2023-02-24T03:11:22.132Z,16.30
2023-02-24T03:14:14.037Z,16.20
2023-02-24T03:17:04.623Z,16.20
2023-02-24T03:20:00.833Z,16.20
2023-02-24T03:22:54.968Z,16.20
2023-02-24T03:25:48.656Z,16.20
2023-02-24T03:28:40.816Z,16.10
2023-02-24T03:31:34.632Z,16.10
2023-02-24T03:34:29.107Z,16.10
2023-02-24T03:37:23.999Z,16.10
2023-02-24T03:40:15.977Z,16.10
2023-02-24T03:43:09.265Z,16.10
2023-02-24T03:46:01.323Z,16.10
2023-02-24T03:48:55.937Z,16.00
2023-02-24T03:51:48.863Z,16.10
2023-02-24T03:55:03.176Z,16.00
2023-02-24T03:58:04.426Z,16.00
2023-02-24T04:00:58.890Z,16.00
2023-02-24T04:03:57.782Z,16.00
2023-02-24T04:06:55.799Z,16.00
2023-02-24T04:09:51.172Z,15.90
2023-02-24T04:12:47.136Z,15.90
2023-02-24T04:15:39.825Z,15.90
2023-02-24T04:18:31.036Z,15.90
2023-02-24T04:21:23.144Z,15.90
2023-02-24T04:24:15.837Z,15.80
2023-02-24T04:27:07.485Z,15.80
2023-02-24T04:30:00.559Z,15.80
2023-02-24T04:32:49.709Z,15.80
2023-02-24T04:35:40.520Z,15.80
2023-02-24T04:38:30.133Z,15.80
2023-02-24T04:41:21.530Z,15.80
2023-02-24T04:44:10.243Z,15.80
2023-02-24T04:46:58.507Z,15.80
2023-02-24T04:49:46.802Z,15.80
2023-02-24T04:52:34.981Z,15.70
2023-02-24T04:55:29.554Z,15.70
2023-02-24T04:58:20.374Z,15.70
2023-02-24T05:01:11.722Z,15.70
2023-02-24T05:04:00.263Z,15.70
2023-02-24T05:06:49.342Z,15.70
2023-02-24T05:09:37.729Z,15.70
2023-02-24T05:12:29.502Z,15.70
2023-02-24T05:15:17.923Z,15.60
2023-02-24T05:18:08.414Z,15.70
2023-02-24T05:21:15.537Z,15.60
2023-02-24T05:24:06.936Z,15.60
2023-02-24T05:26:59.131Z,15.60
2023-02-24T05:29:49.646Z,15.70
2023-02-24T05:32:38.481Z,15.60
2023-02-24T05:35:27.094Z,15.60
2023-02-24T05:38:19.745Z,15.60
2023-02-24T05:41:15.162Z,15.60
2023-02-24T05:44:08.621Z,15.60
2023-02-24T05:46:59.527Z,15.50
2023-02-24T05:49:48.125Z,15.50
2023-02-24T05:52:38.073Z,15.50
2023-02-24T05:55:26.382Z,15.50
2023-02-24T05:58:16.165Z,15.50
2023-02-24T06:01:16.355Z,15.50
2023-02-24T06:04:11.013Z,15.50
2023-02-24T06:06:59.330Z,15.50
2023-02-24T06:09:50.346Z,15.40
2023-02-24T06:12:40.042Z,15.40
2023-02-24T06:15:28.728Z,15.40
2023-02-24T06:18:17.518Z,15.40
2023-02-24T06:21:08.409Z,15.40
2023-02-24T06:23:58.191Z,15.40
2023-02-24T06:26:49.327Z,15.40
2023-02-24T06:29:38.312Z,15.30
2023-02-24T06:32:28.073Z,15.40
2023-02-24T06:35:17.462Z,15.50
2023-02-24T06:38:07.505Z,15.40
2023-02-24T06:41:00.753Z,15.40
2023-02-24T06:43:49.143Z,15.40
2023-02-24T06:46:37.818Z,15.40
2023-02-24T06:49:27.052Z,15.30
2023-02-24T06:52:19.048Z,15.40
2023-02-24T06:55:25.333Z,15.40
2023-02-24T06:58:17.877Z,15.40
2023-02-24T07:01:07.174Z,15.40
2023-02-24T07:04:17.911Z,15.40
2023-02-24T07:07:06.440Z,15.40
2023-02-24T07:09:54.727Z,15.40
2023-02-24T07:12:44.974Z,15.40
2023-02-24T07:15:37.111Z,15.40
2023-02-24T07:18:26.655Z,15.40
2023-02-24T07:21:16.574Z,15.30
2023-02-24T07:24:05.177Z,15.40
2023-02-24T07:26:57.788Z,15.40
2023-02-24T07:29:47.699Z,15.30
2023-02-24T07:32:38.452Z,15.40
2023-02-24T07:35:27.038Z,15.30
2023-02-24T07:38:17.483Z,15.40
2023-02-24T07:41:07.401Z,15.40
2023-02-24T07:43:58.931Z,15.40
2023-02-24T07:46:50.160Z,15.40
2023-02-24T07:49:41.019Z,15.40
2023-02-24T07:52:32.568Z,15.40
2023-02-24T07:55:21.004Z,15.40
2023-02-24T07:58:10.715Z,15.40
2023-02-24T08:01:08.745Z,15.40
2023-02-24T08:04:01.527Z,15.40
2023-02-24T08:06:56.020Z,15.50
2023-02-24T08:10:02.253Z,15.50
2023-02-24T08:12:54.465Z,15.50
2023-02-24T08:15:56.209Z,15.50
2023-02-24T08:18:49.051Z,15.50
2023-02-24T08:21:41.354Z,15.50
2023-02-24T08:24:30.182Z,15.50
2023-02-24T08:27:20.257Z,15.60
2023-02-24T08:30:21.264Z,15.60
2023-02-24T08:33:11.729Z,15.60
2023-02-24T08:36:02.599Z,15.60
2023-02-24T08:38:53.378Z,15.60
2023-02-24T08:41:51.522Z,15.60
2023-02-24T08:44:41.631Z,15.70
2023-02-24T08:47:36.085Z,15.70
2023-02-24T08:50:27.382Z,15.80
2023-02-24T08:53:19.711Z,15.80
2023-02-24T08:56:11.736Z,15.90
2023-02-24T08:59:05.915Z,15.90
2023-02-24T09:02:14.771Z,15.90
2023-02-24T09:05:07.547Z,16.00
2023-02-24T09:07:56.207Z,15.90
2023-02-24T09:10:46.372Z,16.00
2023-02-24T09:13:37.470Z,16.00
2023-02-24T09:16:26.658Z,16.00
2023-02-24T09:19:40.524Z,16.10
2023-02-24T09:22:32.500Z,16.10
2023-02-24T09:25:24.143Z,16.10
2023-02-24T09:28:17.412Z,16.10
2023-02-24T09:31:07.565Z,16.10
2023-02-24T09:33:55.888Z,16.10
2023-02-24T09:37:01.546Z,16.10
2023-02-24T09:40:07.479Z,16.20
2023-02-24T09:42:58.462Z,16.20
2023-02-24T09:46:01.783Z,16.20
2023-02-24T09:49:05.395Z,16.10
2023-02-24T09:52:00.781Z,16.20
2023-02-24T09:55:16.017Z,16.20
2023-02-24T09:58:32.015Z,16.10
2023-02-24T10:01:35.967Z,16.10
2023-02-24T10:04:49.278Z,16.20
2023-02-24T10:07:41.210Z,16.20
2023-02-24T10:10:38.114Z,16.20
2023-02-24T10:13:32.585Z,16.20
2023-02-24T10:16:24.953Z,16.20
2023-02-24T10:19:24.358Z,16.20
2023-02-24T10:22:28.505Z,16.20
2023-02-24T10:25:26.755Z,16.30
2023-02-24T10:28:35.718Z,16.30
2023-02-24T10:31:31.243Z,16.30
2023-02-24T10:34:25.354Z,16.30
2023-02-24T10:37:28.120Z,16.30
2023-02-24T10:40:26.653Z,16.40
2023-02-24T10:43:19.523Z,16.40
2023-02-24T10:46:17.163Z,16.50
2023-02-24T10:49:10.038Z,16.40
2023-02-24T10:51:58.880Z,16.40
2023-02-24T10:55:05.332Z,16.40
2023-02-24T10:58:05.925Z,16.40
2023-02-24T11:01:08.669Z,16.40
2023-02-24T11:04:12.587Z,16.40
2023-02-24T11:07:09.794Z,16.40
2023-02-24T11:10:26.289Z,16.30
2023-02-24T11:13:35.696Z,16.40
2023-02-24T11:16:50.049Z,16.40
2023-02-24T11:19:45.365Z,16.30
2023-02-24T11:22:37.824Z,16.30
2023-02-24T11:25:35.557Z,16.30
2023-02-24T11:28:49.028Z,16.30
2023-02-24T11:31:51.987Z,16.30
2023-02-24T11:34:49.656Z,16.30
2023-02-24T11:37:43.398Z,16.20
2023-02-24T11:40:38.613Z,16.20
2023-02-24T11:43:30.878Z,16.10
2023-02-24T11:46:23.069Z,16.10
2023-02-24T11:49:25.952Z,16.10
2023-02-24T11:52:20.046Z,16.10
2023-02-24T11:55:32.603Z,16.00
2023-02-24T11:58:26.628Z,16.00
2023-02-24T12:01:22.475Z,16.00
2023-02-24T12:04:18.735Z,15.90
2023-02-24T12:07:13.050Z,15.90
2023-02-24T12:10:16.739Z,15.90
2023-02-24T12:13:17.727Z,15.80
2023-02-24T12:16:14.794Z,15.80
2023-02-24T12:19:07.563Z,15.80
2023-02-24T12:22:03.183Z,15.80
2023-02-24T12:24:54.745Z,15.70
2023-02-24T12:27:54.863Z,15.70
2023-02-24T12:30:57.745Z,15.70
2023-02-24T12:34:00.400Z,15.70
2023-02-24T12:37:16.434Z,15.60
2023-02-24T12:40:17.202Z,15.60
2023-02-24T12:43:14.897Z,15.60
2023-02-24T12:46:10.664Z,15.60
2023-02-24T12:49:18.551Z,15.60
2023-02-24T12:52:14.675Z,15.50
2023-02-24T12:55:12.678Z,15.50
2023-02-24T12:58:09.232Z,15.50
2023-02-24T13:01:10.820Z,15.50
2023-02-24T13:04:15.396Z,15.40
2023-02-24T13:07:14.076Z,15.40
2023-02-24T13:10:17.945Z,15.40
2023-02-24T13:13:12.023Z,15.30
2023-02-24T13:16:02.168Z,15.30
2023-02-24T13:18:50.532Z,15.30
2023-02-24T13:21:40.227Z,15.30
2023-02-24T13:24:28.697Z,15.30
2023-02-24T13:27:24.006Z,15.30
2023-02-24T13:30:28.007Z,15.20
2023-02-24T13:33:25.804Z,15.20
2023-02-24T13:36:21.654Z,15.20
2023-02-24T13:39:24.445Z,15.20
2023-02-24T13:42:23.746Z,15.20
2023-02-24T13:45:20.820Z,15.10
2023-02-24T13:48:28.259Z,15.10
2023-02-24T13:51:39.026Z,15.00
2023-02-24T13:54:45.365Z,15.00
2023-02-24T13:58:09.197Z,15.00
2023-02-24T14:01:09.654Z,15.00
2023-02-24T14:04:14.503Z,14.90
2023-02-24T14:07:05.990Z,14.90
2023-02-24T14:09:58.685Z,14.80
2023-02-24T14:12:49.158Z,14.80
2023-02-24T14:15:42.867Z,14.80
2023-02-24T14:18:34.323Z,14.80
2023-02-24T14:21:26.937Z,14.80
2023-02-24T14:24:15.421Z,14.80
2023-02-24T14:27:06.512Z,14.80
2023-02-24T14:29:55.682Z,14.80
2023-02-24T14:32:45.410Z,14.80
2023-02-24T14:35:36.702Z,14.80
2023-02-24T14:38:36.008Z,14.70
2023-02-24T14:41:26.263Z,14.70
2023-02-24T14:44:23.844Z,14.70
2023-02-24T14:47:15.437Z,14.70
2023-02-24T14:50:06.787Z,14.70
2023-02-24T14:52:59.471Z,14.70
2023-02-24T14:55:51.245Z,14.70
2023-02-24T14:58:45.910Z,14.70
2023-02-24T15:01:40.406Z,14.70
2023-02-24T15:04:35.159Z,14.60
2023-02-24T15:07:27.027Z,14.60
2023-02-24T15:10:22.611Z,14.70
2023-02-24T15:13:16.757Z,14.60
2023-02-24T15:16:12.715Z,14.60
2023-02-24T15:19:03.072Z,14.60
2023-02-24T15:21:51.279Z,14.60
2023-02-24T15:24:39.629Z,14.60
2023-02-24T15:27:29.578Z,14.60
2023-02-24T15:30:32.234Z,14.60
2023-02-24T15:33:23.443Z,14.50
2023-02-24T15:36:21.566Z,14.50
2023-02-24T15:39:20.657Z,14.50
2023-02-24T15:42:11.173Z,14.50
2023-02-24T15:45:01.264Z,14.50
2023-02-24T15:47:54.894Z,14.50
2023-02-24T15:50:43.293Z,14.40
2023-02-24T15:53:32.991Z,14.50
2023-02-24T15:56:21.895Z,14.50
2023-02-24T15:59:14.023Z,14.50
2023-02-24T16:02:02.386Z,14.50
2023-02-24T16:04:52.068Z,14.50
2023-02-24T16:07:41.049Z,14.50
2023-02-24T16:10:31.724Z,14.50
2023-02-24T16:13:22.454Z,14.50
2023-02-24T16:16:13.908Z,14.50
2023-02-24T16:19:02.181Z,14.40
2023-02-24T16:21:50.481Z,14.40
2023-02-24T16:24:38.791Z,14.40
2023-02-24T16:27:29.730Z,14.40
2023-02-24T16:30:22.145Z,14.40
2023-02-24T16:33:13.614Z,14.40
2023-02-24T16:36:02.074Z,14.30
2023-02-24T16:38:51.794Z,14.30
2023-02-24T16:41:40.324Z,14.30
2023-02-24T16:44:30.013Z,14.40
2023-02-24T16:47:22.355Z,14.30
2023-02-24T16:50:20.121Z,14.30
2023-02-24T16:53:09.804Z,14.30
2023-02-24T16:55:58.390Z,14.30
2023-02-24T16:58:46.970Z,14.30
2023-02-24T17:01:36.672Z,14.30
2023-02-24T17:04:25.861Z,14.30
2023-02-24T17:07:14.647Z,14.30
2023-02-24T17:10:03.047Z,14.30
2023-02-24T17:12:52.170Z,14.20
2023-02-24T17:15:40.500Z,14.20
2023-02-24T17:18:30.392Z,14.30
2023-02-24T17:21:21.796Z,14.30
2023-02-24T17:24:16.092Z,14.30
2023-02-24T17:27:04.572Z,14.30
2023-02-24T17:29:52.853Z,14.30
2023-02-24T17:32:41.530Z,14.20
2023-02-24T17:35:31.557Z,14.30
2023-02-24T17:38:23.285Z,14.20
2023-02-24T17:41:11.657Z,14.20
2023-02-24T17:44:00.381Z,14.20
2023-02-24T17:46:48.929Z,14.30
2023-02-24T17:49:37.308Z,14.20
2023-02-24T17:52:27.316Z,14.20
2023-02-24T17:55:15.772Z,14.30
2023-02-24T17:58:04.132Z,14.20
2023-02-24T18:00:52.424Z,14.20
2023-02-24T18:03:40.718Z,14.20
2023-02-24T18:06:29.112Z,14.20
2023-02-24T18:09:18.747Z,14.20
2023-02-24T18:12:08.555Z,14.20
2023-02-24T18:15:07.783Z,14.20
2023-02-24T18:17:57.459Z,14.20
2023-02-24T18:20:46.245Z,14.20
2023-02-24T18:23:35.214Z,14.20
2023-02-24T18:26:26.293Z,14.20
2023-02-24T18:29:14.790Z,14.20
2023-02-24T18:32:04.325Z,14.20
2023-02-24T18:34:52.627Z,14.20
2023-02-24T18:37:41.128Z,14.20
2023-02-24T18:40:30.497Z,14.20
2023-02-24T18:43:20.216Z,14.20
2023-02-24T18:46:12.436Z,14.20
2023-02-24T18:49:00.760Z,14.20
2023-02-24T18:51:49.522Z,14.20
2023-02-24T18:54:37.750Z,14.20
2023-02-24T18:57:26.102Z,14.20
2023-02-24T19:00:16.939Z,14.20
2023-02-24T19:03:05.385Z,14.20
2023-02-24T19:05:53.840Z,14.20
2023-02-24T19:08:43.381Z,14.20
2023-02-24T19:11:31.798Z,14.20
2023-02-24T19:14:20.142Z,14.20
2023-02-24T19:17:09.856Z,14.20
2023-02-24T19:19:58.108Z,14.20
2023-02-24T19:22:48.745Z,14.10
2023-02-24T19:25:38.853Z,14.20
2023-02-24T19:28:27.335Z,14.20
2023-02-24T19:31:17.656Z,14.20
2023-02-24T19:34:09.300Z,14.20
2023-02-24T19:36:57.537Z,14.20
2023-02-24T19:39:46.276Z,14.10
2023-02-24T19:42:34.620Z,14.20
2023-02-24T19:45:23.030Z,14.10
2023-02-24T19:48:11.508Z,14.10
2023-02-24T19:51:01.701Z,14.10
2023-02-24T19:53:53.560Z,14.10
2023-02-24T19:56:42.034Z,14.20
2023-02-24T19:59:30.447Z,14.20
2023-02-24T20:02:19.053Z,14.20
2023-02-24T20:05:08.662Z,14.20
2023-02-24T20:07:59.323Z,14.20
2023-02-24T20:10:47.738Z,14.20
2023-02-24T20:13:36.080Z,14.20
2023-02-24T20:16:26.415Z,14.20
2023-02-24T20:19:16.261Z,14.20
2023-02-24T20:22:04.650Z,14.20
2023-02-24T20:24:54.558Z,14.20
2023-02-24T20:27:43.158Z,14.20
2023-02-24T20:30:31.516Z,14.30
2023-02-24T20:33:20.096Z,14.20
2023-02-24T20:36:09.585Z,14.20
2023-02-24T20:39:00.033Z,14.20
2023-02-24T20:41:50.746Z,14.20
2023-02-24T20:44:39.199Z,14.20
2023-02-24T20:47:27.525Z,14.20
2023-02-24T20:50:16.129Z,14.20
2023-02-24T20:53:04.600Z,14.20
2023-02-24T20:55:52.951Z,14.20
2023-02-24T20:58:42.716Z,14.20
2023-02-24T21:01:32.078Z,14.20
2023-02-24T21:04:21.954Z,14.20
2023-02-24T21:07:10.239Z,14.20
2023-02-24T21:09:58.617Z,14.20
2023-02-24T21:12:47.397Z,14.20
2023-02-24T21:15:37.113Z,14.20
2023-02-24T21:18:25.562Z,14.20
2023-02-24T21:21:15.351Z,14.20
2023-02-24T21:24:03.683Z,14.20
2023-02-24T21:26:51.947Z,14.20
2023-02-24T21:29:40.382Z,14.20
2023-02-24T21:32:30.659Z,14.20
2023-02-24T21:35:19.274Z,14.20
2023-02-24T21:38:07.804Z,14.20
2023-02-24T21:40:59.484Z,14.20
2023-02-24T21:43:50.618Z,14.20
2023-02-24T21:46:39.220Z,14.20
2023-02-24T21:49:30.356Z,14.30
2023-02-24T21:52:19.974Z,14.30
2023-02-24T21:55:09.833Z,14.30
2023-02-24T21:57:58.236Z,14.30
2023-02-24T22:00:47.540Z,14.30
2023-02-24T22:03:35.973Z,14.20
2023-02-24T22:06:30.946Z,14.30
2023-02-24T22:09:20.635Z,14.20
2023-02-24T22:12:09.085Z,14.20
2023-02-24T22:14:57.429Z,14.20
2023-02-24T22:17:46.009Z,14.20
2023-02-24T22:20:34.610Z,14.20
2023-02-24T22:23:24.267Z,14.20
2023-02-24T22:26:13.313Z,14.20
2023-02-24T22:29:02.943Z,14.20
2023-02-24T22:31:51.535Z,14.20
2023-02-24T22:34:39.855Z,14.20
2023-02-24T22:37:28.249Z,14.20
2023-02-24T22:40:20.485Z,14.20
2023-02-24T22:43:09.246Z,14.20
2023-02-24T22:45:59.167Z,14.20
2023-02-24T22:48:47.865Z,14.20
2023-02-24T22:51:36.557Z,14.20
2023-02-24T22:54:25.020Z,14.20
2023-02-24T22:57:15.321Z,14.20
2023-02-24T23:00:09.698Z,14.20
2023-02-24T23:02:58.204Z,14.20
2023-02-24T23:05:56.392Z,14.20
2023-02-24T23:08:46.959Z,14.20
2023-02-24T23:11:38.336Z,14.20
2023-02-24T23:14:28.123Z,14.20
2023-02-24T23:17:16.457Z,14.20
2023-02-24T23:20:07.272Z,14.20
2023-02-24T23:22:55.960Z,14.30
2023-02-24T23:25:52.345Z,14.20
2023-02-24T23:28:40.913Z,14.20
2023-02-24T23:31:31.226Z,14.20
2023-02-24T23:34:19.909Z,14.20
2023-02-24T23:37:12.086Z,14.20
2023-02-24T23:40:00.356Z,14.20
2023-02-24T23:42:48.761Z,14.20
2023-02-24T23:45:39.596Z,14.20
2023-02-24T23:48:29.349Z,14.20
2023-02-24T23:51:17.983Z,14.20
2023-02-24T23:54:06.469Z,14.20
2023-02-24T23:56:54.647Z,14.20
2023-02-24T23:59:43.061Z,14.20
